Time;durP1;ratioP1;P1;durP2;ratioP2;P2;SDS_P1;SDS_P2;PMS_P1;PMS_P2;Temp;Humidity;BMP_temperature;BMP_pressure;BME280_temperature;BME280_humidity;BME280_pressure;Samples;Min_cycle;Max_cycle;Signal;HPM_P1;HPM_P2
2023/05/13 00:00:28;;;;;;;16.00;11.00;;;;;;;8.55;63.93;101260.23;102632;278;114015;-57
2023/05/13 00:03:22;;;;;;;19.00;11.30;;;;;;;8.50;64.14;101261.09;102616;278;95190;-54
2023/05/13 00:06:04;;;;;;;17.40;10.80;;;;;;;8.45;64.11;101262.40;102695;278;97578;-54
2023/05/13 00:08:47;;;;;;;20.90;11.80;;;;;;;8.37;64.28;101267.84;102671;278;118959;-58
2023/05/13 00:11:26;;;;;;;19.60;11.50;;;;;;;8.32;64.26;101270.18;102574;279;104576;-57
2023/05/13 00:14:11;;;;;;;19.50;12.60;;;;;;;8.26;64.37;101271.42;102647;278;113316;-56
2023/05/13 00:16:51;;;;;;;24.70;13.20;;;;;;;8.19;64.40;101269.21;102645;278;94734;-56
2023/05/13 00:19:34;;;;;;;24.50;13.30;;;;;;;8.14;64.61;101263.88;102464;278;96779;-56
2023/05/13 00:22:15;;;;;;;22.50;13.70;;;;;;;8.10;64.64;101264.30;102570;278;119793;-56
2023/05/13 00:24:52;;;;;;;22.70;13.00;;;;;;;8.08;64.67;101267.30;102623;278;105775;-56
2023/05/13 00:27:27;;;;;;;23.30;12.70;;;;;;;8.06;64.93;101261.98;102571;277;115139;-56
2023/05/13 00:30:01;;;;;;;21.20;12.00;;;;;;;8.02;65.33;101259.69;102606;278;94895;-55
2023/05/13 00:32:42;;;;;;;19.90;12.40;;;;;;;7.98;65.33;101255.95;102637;278;96883;-55
2023/05/13 00:35:17;;;;;;;16.70;11.90;;;;;;;7.92;65.49;101261.92;102671;278;118171;-55
2023/05/13 00:38:04;;;;;;;21.00;12.80;;;;;;;7.86;65.73;101261.25;102588;278;103958;-55
2023/05/13 00:40:51;;;;;;;20.70;12.90;;;;;;;7.80;65.84;101264.20;102507;278;114414;-56
2023/05/13 00:43:32;;;;;;;17.70;12.50;;;;;;;7.77;66.04;101263.77;102529;278;96117;-56
2023/05/13 00:46:09;;;;;;;22.20;12.50;;;;;;;7.76;66.10;101269.61;102578;278;97771;-56
2023/05/13 00:48:46;;;;;;;18.80;13.10;;;;;;;7.76;66.23;101267.15;102608;278;119722;-57
2023/05/13 00:51:23;;;;;;;17.50;12.60;;;;;;;7.77;66.33;101271.89;102668;278;103329;-56
2023/05/13 00:54:02;;;;;;;20.30;13.00;;;;;;;7.74;66.25;101274.33;102642;278;113100;-56
2023/05/13 00:56:43;;;;;;;21.20;14.10;;;;;;;7.71;66.48;101274.88;102666;266;95737;-57
2023/05/13 00:59:26;;;;;;;26.00;14.60;;;;;;;7.74;66.41;101276.44;102683;278;96788;-55
2023/05/13 01:02:16;;;;;;;21.80;14.00;;;;;;;7.77;66.46;101271.91;102666;278;119971;-54
2023/05/13 01:05:03;;;;;;;23.80;13.30;;;;;;;7.74;66.78;101276.48;102613;278;105130;-54
2023/05/13 01:08:02;;;;;;;21.60;14.40;;;;;;;7.67;66.86;101276.92;102622;278;114677;-54
2023/05/13 01:10:50;;;;;;;19.80;13.70;;;;;;;7.64;66.95;101275.78;102618;278;93737;-54
2023/05/13 01:13:31;;;;;;;20.30;13.90;;;;;;;7.61;66.94;101275.18;102612;278;97170;-56
2023/05/13 01:16:16;;;;;;;23.80;13.60;;;;;;;7.55;67.15;101280.77;102580;278;117966;-56
2023/05/13 01:18:59;;;;;;;24.50;14.90;;;;;;;7.49;67.25;101285.36;102609;278;103663;-56
2023/05/13 01:21:51;;;;;;;21.10;13.50;;;;;;;7.44;67.36;101284.73;102609;278;114508;-56
2023/05/13 01:24:34;;;;;;;22.00;14.00;;;;;;;7.42;67.51;101284.42;102530;278;93566;-57
2023/05/13 01:27:10;;;;;;;20.70;13.40;;;;;;;7.40;67.47;101281.91;102614;278;98119;-57
2023/05/13 01:29:55;;;;;;;20.60;13.60;;;;;;;7.39;67.55;101280.22;102620;278;117609;-57
2023/05/13 01:32:37;;;;;;;23.20;13.70;;;;;;;7.34;67.64;101279.81;102616;266;105525;-57
2023/05/13 01:35:23;;;;;;;16.40;12.10;;;;;;;7.29;67.71;101280.71;102612;278;114495;-54
2023/05/13 01:38:03;;;;;;;17.50;13.30;;;;;;;7.25;67.83;101282.50;102674;278;95868;-56
2023/05/13 01:40:42;;;;;;;20.70;12.30;;;;;;;7.20;67.95;101281.05;102615;278;96970;-64
2023/05/13 01:43:19;;;;;;;22.60;13.90;;;;;;;7.15;68.12;101280.25;102679;278;118164;-56
2023/05/13 01:45:59;;;;;;;18.70;13.20;;;;;;;7.10;68.36;101283.91;102654;277;105062;-57
2023/05/13 01:48:37;;;;;;;20.50;13.40;;;;;;;7.03;68.34;101279.05;102651;278;113866;-56
2023/05/13 01:51:19;;;;;;;20.00;14.00;;;;;;;6.96;68.67;101280.44;102581;278;94582;-58
2023/05/13 01:53:56;;;;;;;19.00;13.20;;;;;;;6.96;68.51;101279.00;102585;278;97725;-54
2023/05/13 01:56:39;;;;;;;18.90;12.40;;;;;;;6.93;68.63;101283.38;102561;278;119073;-55
2023/05/13 01:59:27;;;;;;;18.30;13.50;;;;;;;6.91;68.61;101287.00;102460;278;107026;-55
2023/05/13 02:02:06;;;;;;;18.50;13.10;;;;;;;6.87;68.74;101285.73;102563;278;114606;-57
2023/05/13 02:04:44;;;;;;;19.50;13.10;;;;;;;6.84;68.83;101284.98;102560;278;97285;-57
2023/05/13 02:07:21;;;;;;;19.70;14.20;;;;;;;6.80;69.13;101282.34;102597;278;97591;-56
2023/05/13 02:10:05;;;;;;;21.20;13.60;;;;;;;6.73;69.11;101284.75;102555;277;119807;-57
2023/05/13 02:12:40;;;;;;;18.90;14.00;;;;;;;6.69;69.25;101289.27;102649;277;104783;-57
2023/05/13 02:15:19;;;;;;;19.10;14.20;;;;;;;6.67;69.43;101287.67;102552;278;113497;-57
2023/05/13 02:17:59;;;;;;;20.00;13.00;;;;;;;6.62;69.37;101291.88;102548;277;95233;-55
2023/05/13 02:20:38;;;;;;;22.90;13.10;;;;;;;6.58;69.47;101292.63;102547;277;97270;-57
2023/05/13 02:23:17;;;;;;;23.20;13.70;;;;;;;6.55;69.50;101292.90;102572;278;119728;-55
2023/05/13 02:26:01;;;;;;;18.70;13.00;;;;;;;6.56;69.63;101294.84;102522;279;104958;-55
2023/05/13 02:28:45;;;;;;;19.80;12.70;;;;;;;6.57;69.86;101307.98;102553;277;113544;-55
2023/05/13 02:31:21;;;;;;;18.20;12.70;;;;;;;6.64;69.97;101300.36;102607;278;94698;-55
2023/05/13 02:33:56;;;;;;;18.30;13.10;;;;;;;6.68;69.98;101307.23;102640;278;96058;-57
2023/05/13 02:36:40;;;;;;;19.50;13.20;;;;;;;6.72;70.17;101309.40;102578;277;118814;-56
2023/05/13 02:39:23;;;;;;;17.70;12.70;;;;;;;6.73;70.25;101311.07;102580;277;106184;-55
2023/05/13 02:42:01;;;;;;;16.00;12.20;;;;;;;6.72;70.36;101312.30;102609;278;113871;-55
2023/05/13 02:44:44;;;;;;;29.30;14.00;;;;;;;6.68;70.58;101314.95;102559;266;98473;-57
2023/05/13 02:47:23;;;;;;;17.30;12.50;;;;;;;6.71;70.73;101308.83;102575;277;96747;-56
2023/05/13 02:50:06;;;;;;;17.60;13.00;;;;;;;6.77;70.72;101306.61;102544;277;119301;-55
2023/05/13 02:52:45;;;;;;;18.50;13.80;;;;;;;6.87;70.75;101297.08;102519;277;105490;-56
2023/05/13 02:55:26;;;;;;;20.40;12.80;;;;;;;6.90;71.09;101298.55;102537;277;113556;-54
2023/05/13 02:58:02;;;;;;;18.20;12.50;;;;;;;6.91;71.39;101298.80;102518;277;93054;-56
2023/05/13 03:00:41;;;;;;;19.00;13.30;;;;;;;7.00;71.49;101297.08;102538;278;98597;-57
2023/05/13 03:03:16;;;;;;;19.60;13.10;;;;;;;7.09;71.31;101304.84;102567;277;118857;-56
2023/05/13 03:05:51;;;;;;;18.40;12.70;;;;;;;7.18;71.48;101310.39;102502;277;105706;-56
2023/05/13 03:08:28;;;;;;;19.10;12.90;;;;;;;7.29;71.73;101308.66;102549;277;114739;-54
2023/05/13 03:11:05;;;;;;;18.40;12.40;;;;;;;7.46;71.69;101308.75;102533;277;96372;-54
2023/05/13 03:13:46;;;;;;;19.30;13.40;;;;;;;7.63;71.79;101307.23;102583;277;96510;-54
2023/05/13 03:16:24;;;;;;;17.60;12.60;;;;;;;7.78;71.73;101304.05;102604;278;118873;-55
2023/05/13 03:19:01;;;;;;;20.00;13.90;;;;;;;7.88;71.62;101298.02;102615;278;105919;-57
2023/05/13 03:21:40;;;;;;;20.70;14.20;;;;;;;7.95;71.64;101303.98;102626;278;113934;-57
2023/05/13 03:24:15;;;;;;;22.60;14.20;;;;;;;8.00;71.67;101301.16;102648;278;96064;-54
2023/05/13 03:26:52;;;;;;;;;;;;;;;8.07;71.47;101310.46;102691;278;97642;-54
2023/05/13 03:29:32;;;;;;;25.40;14.60;;;;;;;8.18;71.41;101313.18;102623;278;120250;-54
2023/05/13 03:32:09;;;;;;;20.50;13.90;;;;;;;8.34;71.41;101314.98;102518;279;104505;-55
2023/05/13 03:34:49;;;;;;;24.70;15.00;;;;;;;8.58;71.02;101292.55;102656;278;113721;-55
2023/05/13 03:37:34;;;;;;;25.20;14.50;;;;;;;8.80;70.77;101290.11;102628;278;93089;-54
2023/05/13 03:40:11;;;;;;;23.70;15.90;;;;;;;8.96;70.69;101282.11;102525;278;99517;-57
2023/05/13 03:42:51;;;;;;;24.40;16.30;;;;;;;9.00;70.33;101287.93;102596;278;118781;-57
2023/05/13 03:45:40;;;;;;;20.50;15.40;;;;;;;9.07;70.10;101303.79;102592;278;105705;-54
2023/05/13 03:48:23;;;;;;;22.70;15.20;;;;;;;9.11;69.79;101300.63;102626;278;114651;-58
2023/05/13 03:50:58;;;;;;;20.70;15.40;;;;;;;9.11;69.58;101301.55;102094;278;700048;-57
2023/05/13 03:53:43;;;;;;;23.60;15.00;;;;;;;9.15;69.55;101303.41;102466;278;98179;-57
2023/05/13 03:56:28;;;;;;;25.20;16.30;;;;;;;9.58;69.64;101302.12;102600;266;119636;-57
2023/05/13 03:59:07;;;;;;;22.70;14.10;;;;;;;10.92;69.43;101305.23;102663;278;104609;-55
2023/05/13 04:01:51;;;;;;;25.10;15.20;;;;;;;11.18;68.33;101300.42;102627;278;113466;-56
2023/05/13 04:04:28;;;;;;;20.00;15.10;;;;;;;10.88;67.75;101309.36;102637;278;93365;-57
2023/05/13 04:07:06;;;;;;;20.80;14.60;;;;;;;10.71;67.82;101313.77;102644;278;97539;-57
2023/05/13 04:09:44;;;;;;;19.50;14.10;;;;;;;10.69;67.73;101308.45;102683;278;118693;-57
2023/05/13 04:12:22;;;;;;;24.00;15.50;;;;;;;10.50;67.29;101315.31;102626;278;105341;-57
2023/05/13 04:15:02;;;;;;;21.50;14.90;;;;;;;10.28;67.14;101311.77;102616;277;113051;-57
2023/05/13 04:17:46;;;;;;;21.80;15.70;;;;;;;10.13;67.10;101312.81;102676;278;95130;-56
2023/05/13 04:20:23;;;;;;;20.90;14.90;;;;;;;9.94;67.27;101315.66;102634;278;97788;-56
2023/05/13 04:23:04;;;;;;;19.30;14.10;;;;;;;9.86;67.52;101313.91;102629;278;118725;-54
2023/05/13 04:25:53;;;;;;;21.50;15.00;;;;;;;9.80;67.68;101318.82;102590;278;105940;-54
2023/05/13 04:28:37;;;;;;;23.20;15.90;;;;;;;9.78;67.84;101321.06;102587;278;113157;-57
2023/05/13 04:31:16;;;;;;;18.80;14.50;;;;;;;9.93;67.79;101319.21;102593;278;96048;-58
2023/05/13 04:33:58;;;;;;;22.30;16.00;;;;;;;10.15;67.81;101323.42;102635;278;96725;-56
2023/05/13 04:36:38;;;;;;;25.10;15.80;;;;;;;10.47;67.63;101326.22;102590;278;119226;-57
2023/05/13 04:39:18;;;;;;;21.00;16.40;;;;;;;10.76;67.47;101328.05;102585;278;105664;-54
2023/05/13 04:41:59;;;;;;;21.60;16.00;;;;;;;11.08;67.41;101329.13;102634;277;113926;-55
2023/05/13 04:44:39;;;;;;;36.40;17.90;;;;;;;11.66;66.95;101326.55;102576;278;93961;-58
2023/05/13 04:47:19;;;;;;;41.90;19.90;;;;;;;12.80;65.67;101324.17;102615;277;96159;-56
2023/05/13 04:50:04;;;;;;;42.70;19.10;;;;;;;14.31;63.91;101324.91;102634;278;119921;-56
2023/05/13 04:52:46;;;;;;;;;;;;;;;16.43;61.88;101320.09;102580;278;105873;-55
2023/05/13 04:55:24;;;;;;;41.00;20.30;;;;;;;18.35;59.79;101319.71;102614;278;114600;-55
2023/05/13 04:58:03;;;;;;;42.30;25.20;;;;;;;17.93;57.74;101324.56;102602;278;94627;-55
2023/05/13 05:00:42;;;;;;;35.20;20.60;;;;;;;17.13;57.10;101334.90;102634;277;96319;-56
2023/05/13 05:03:24;;;;;;;31.10;19.70;;;;;;;16.67;56.55;101338.19;102595;266;118961;-57
2023/05/13 05:05:59;;;;;;;27.70;17.60;;;;;;;16.54;56.11;101344.59;102609;278;104231;-58
2023/05/13 05:08:33;;;;;;;;;;;;;;;18.05;55.39;101348.02;102646;278;114817;-58
2023/05/13 05:11:12;;;;;;;18.30;13.30;;;;;;;18.23;53.38;101347.48;102578;278;94827;-58
2023/05/13 05:13:55;;;;;;;21.10;13.30;;;;;;;18.19;52.44;101348.86;102602;278;98736;-54
2023/05/13 05:16:34;;;;;;;17.10;12.70;;;;;;;18.12;51.63;101345.30;102560;278;119343;-55
2023/05/13 05:19:16;;;;;;;18.40;13.10;;;;;;;19.94;51.26;101331.05;102562;278;103506;-58
2023/05/13 05:21:51;;;;;;;17.50;12.60;;;;;;;22.06;49.08;101327.33;102465;278;113449;-58
2023/05/13 05:24:43;;;;;;;20.00;12.30;;;;;;;23.68;47.30;101319.14;102592;278;93648;-59
2023/05/13 05:27:21;;;;;;;26.50;13.80;;;;;;;25.19;44.79;101313.77;102581;278;97139;-58
2023/05/13 05:30:03;;;;;;;27.40;12.70;;;;;;;26.42;42.79;101309.08;102545;278;119786;-58
2023/05/13 05:32:47;;;;;;;47.20;15.00;;;;;;;27.32;40.54;101311.83;102476;278;104092;-58
2023/05/13 05:35:25;;;;;;;35.20;13.80;;;;;;;28.24;39.12;101301.14;102541;278;114313;-56
2023/05/13 05:38:08;;;;;;;38.20;13.90;;;;;;;28.87;37.71;101298.83;102566;278;95130;-56
2023/05/13 05:40:48;;;;;;;;;;;;;;;29.52;36.52;101296.80;102580;278;98556;-56
2023/05/13 05:43:30;;;;;;;29.80;15.20;;;;;;;29.64;35.42;101295.23;102562;278;120710;-58
2023/05/13 05:46:09;;;;;;;29.90;15.50;;;;;;;30.23;34.33;101293.18;102569;278;104798;-58
2023/05/13 05:48:45;;;;;;;33.00;15.90;;;;;;;30.67;33.42;101298.74;102579;278;115371;-57
2023/05/13 05:51:26;;;;;;;25.10;14.70;;;;;;;31.18;32.12;101304.55;102568;278;92845;-57
2023/05/13 05:54:05;;;;;;;22.60;11.30;;;;;;;31.57;31.37;101310.77;102600;278;96791;-57
2023/05/13 05:56:41;;;;;;;16.40;10.20;;;;;;;31.73;30.27;101312.44;102563;266;119007;-58
2023/05/13 05:59:18;;;;;;;13.30;9.70;;;;;;;32.35;29.34;101308.05;102589;278;105247;-58
2023/05/13 06:01:55;;;;;;;12.00;9.40;;;;;;;32.60;28.72;101309.59;102561;277;114698;-58
2023/05/13 06:04:31;;;;;;;13.70;9.40;;;;;;;32.69;28.13;101310.52;102528;278;94854;-56
2023/05/13 06:07:08;;;;;;;14.20;8.80;;;;;;;32.62;27.79;101303.76;102551;277;97304;-55
2023/05/13 06:09:49;;;;;;;10.70;9.30;;;;;;;32.47;27.54;101306.58;102516;278;119507;-56
2023/05/13 06:12:28;;;;;;;11.50;8.90;;;;;;;32.92;27.27;101298.39;102575;277;105867;-56
2023/05/13 06:15:05;;;;;;;14.70;9.90;;;;;;;33.22;26.74;101292.85;102529;277;113659;-59
2023/05/13 06:17:43;;;;;;;10.20;8.10;;;;;;;33.50;26.26;101294.09;102567;278;95027;-58
2023/05/13 06:20:26;;;;;;;14.00;9.20;;;;;;;33.86;25.82;101292.06;102524;277;95332;-56
2023/05/13 06:23:13;;;;;;;29.70;13.20;;;;;;;34.07;25.37;101293.19;102542;278;119146;-58
2023/05/13 06:25:49;;;;;;;26.80;13.90;;;;;;;33.69;24.91;101296.57;102569;278;105569;-59
2023/05/13 06:28:29;;;;;;;20.20;12.20;;;;;;;33.81;24.91;101296.45;102604;277;114553;-58
2023/05/13 06:31:07;;;;;;;15.00;8.70;;;;;;;34.18;23.98;101293.89;102519;278;94057;-59
2023/05/13 06:33:43;;;;;;;22.30;10.10;;;;;;;34.41;23.07;101293.31;102580;278;98017;-58
2023/05/13 06:36:23;;;;;;;11.80;8.40;;;;;;;34.57;22.95;101296.19;102589;278;119809;-58
2023/05/13 06:39:04;;;;;;;24.40;9.90;;;;;;;34.78;22.73;101293.35;102608;277;104902;-58
2023/05/13 06:41:39;;;;;;;18.60;10.10;;;;;;;35.16;22.57;101298.74;102539;277;113543;-58
2023/05/13 06:44:16;;;;;;;22.70;11.60;;;;;;;35.58;22.25;101298.75;102619;278;94703;-58
2023/05/13 06:46:57;;;;;;;20.30;14.00;;;;;;;35.62;22.22;101302.37;102602;278;97464;-56
2023/05/13 06:49:35;;;;;;;20.10;12.80;;;;;;;35.08;22.05;101297.99;102591;277;120035;-58
2023/05/13 06:52:11;;;;;;;18.30;12.00;;;;;;;35.52;21.60;101303.80;102525;277;105696;-59
2023/05/13 06:54:50;;;;;;;20.90;11.70;;;;;;;35.62;21.86;101299.64;102526;279;114142;-59
2023/05/13 06:57:28;;;;;;;16.10;10.80;;;;;;;35.74;21.52;101302.89;102531;277;95107;-59
2023/05/13 07:00:07;;;;;;;17.60;8.50;;;;;;;35.74;21.10;101300.17;102582;277;97865;-59
2023/05/13 07:02:48;;;;;;;10.60;7.70;;;;;;;35.96;20.23;101299.82;102517;277;120113;-59
2023/05/13 07:05:29;;;;;;;12.70;8.30;;;;;;;36.08;19.83;101295.11;102538;278;105339;-56
2023/05/13 07:08:09;;;;;;;10.00;6.70;;;;;;;36.04;20.18;101297.36;102586;277;113316;-56
2023/05/13 07:10:47;;;;;;;11.70;6.80;;;;;;;36.19;19.60;101295.15;102595;278;93419;-56
2023/05/13 07:13:23;;;;;;;9.90;6.50;;;;;;;36.58;19.21;101295.99;102545;277;97227;-66
2023/05/13 07:15:57;;;;;;;8.10;5.90;;;;;;;36.49;19.02;101292.17;102561;278;120138;-66
2023/05/13 07:18:33;;;;;;;7.20;4.80;;;;;;;36.15;18.93;101290.77;102680;278;103585;-63
2023/05/13 07:21:08;;;;;;;6.90;5.20;;;;;;;36.47;18.64;101293.12;102636;278;113847;-64
2023/05/13 07:23:58;;;;;;;10.90;6.00;;;;;;;36.48;19.03;101290.60;102617;278;94846;-65
2023/05/13 07:26:38;;;;;;;7.30;5.70;;;;;;;36.41;18.78;101293.19;102669;278;98516;-68
2023/05/13 07:29:24;;;;;;;9.60;5.40;;;;;;;36.01;18.45;101296.59;102654;278;120114;-66
2023/05/13 07:32:06;;;;;;;6.70;5.00;;;;;;;35.84;18.51;101292.41;102656;278;105795;-66
2023/05/13 07:34:43;;;;;;;8.60;4.90;;;;;;;35.98;18.93;101296.21;102646;278;114962;-62
2023/05/13 07:37:29;;;;;;;9.40;4.50;;;;;;;36.22;17.87;101288.72;102519;278;95111;-62
2023/05/13 07:40:10;;;;;;;8.50;4.80;;;;;;;36.14;17.17;101290.39;102679;278;95865;-62
2023/05/13 07:42:56;;;;;;;8.20;4.70;;;;;;;36.09;16.88;101294.36;102660;278;119641;-62
2023/05/13 07:45:40;;;;;;;7.30;4.40;;;;;;;36.01;16.96;101291.40;102629;278;106323;-62
2023/05/13 07:48:27;;;;;;;7.70;4.70;;;;;;;35.76;16.94;101289.27;102654;278;114424;-61
2023/05/13 07:51:07;;;;;;;11.00;5.60;;;;;;;35.57;17.80;101289.63;102632;278;94869;-63
2023/05/13 07:53:44;;;;;;;10.00;5.40;;;;;;;35.62;17.66;101285.31;102636;278;96882;-62
2023/05/13 07:56:23;;;;;;;9.90;4.70;;;;;;;35.70;17.39;101282.79;102626;278;119824;-61
2023/05/13 07:59:08;;;;;;;7.20;3.90;;;;;;;35.37;17.11;101279.80;102664;278;103646;-62
2023/05/13 08:01:49;;;;;;;5.70;3.80;;;;;;;35.04;16.57;101282.94;102596;278;114993;-58
2023/05/13 08:04:27;;;;;;;4.90;4.40;;;;;;;34.73;17.50;101277.89;102648;278;93243;-61
2023/05/13 08:07:12;;;;;;;6.40;4.20;;;;;;;35.15;17.17;101279.62;102611;278;96920;-59
2023/05/13 08:09:51;;;;;;;6.80;4.20;;;;;;;35.40;17.00;101280.17;102645;278;119508;-56
2023/05/13 08:12:31;;;;;;;6.20;4.40;;;;;;;35.42;16.75;101280.42;102626;278;104683;-56
2023/05/13 08:15:13;;;;;;;9.50;4.70;;;;;;;35.43;17.30;101278.37;102616;278;113308;-59
2023/05/13 08:17:49;;;;;;;6.60;4.70;;;;;;;35.37;17.71;101275.62;102631;278;93904;-57
2023/05/13 08:20:28;;;;;;;5.90;4.10;;;;;;;35.34;17.44;101278.70;102670;278;98517;-55
2023/05/13 08:23:08;;;;;;;6.80;3.70;;;;;;;35.31;17.07;101270.33;102664;278;120861;-57
2023/05/13 08:25:48;;;;;;;5.40;3.50;;;;;;;35.30;17.10;101272.05;102448;278;108010;-58
2023/05/13 08:28:30;;;;;;;7.80;4.40;;;;;;;35.21;17.39;101271.64;102629;278;114578;-56
2023/05/13 08:31:06;;;;;;;4.60;3.20;;;;;;;35.19;16.95;101271.29;102659;278;93076;-57
2023/05/13 08:33:49;;;;;;;4.30;2.90;;;;;;;34.66;16.19;101270.76;102642;278;97044;-56
2023/05/13 08:36:24;;;;;;;;;;;;;;;34.64;16.32;101269.27;102646;278;120517;-56
2023/05/13 08:39:01;;;;;;;6.40;3.10;;;;;;;34.78;16.65;101268.75;102676;278;105010;-55
2023/05/13 08:41:40;;;;;;;4.00;2.90;;;;;;;34.97;16.99;101264.52;102623;278;115031;-55
2023/05/13 08:44:27;;;;;;;5.90;2.70;;;;;;;35.18;16.88;101263.13;102606;278;94687;-56
2023/05/13 08:47:23;;;;;;;6.90;3.30;;;;;;;35.20;16.62;101262.98;102657;278;98017;-60
2023/05/13 08:50:07;;;;;;;7.20;3.10;;;;;;;35.07;16.66;101267.02;102658;278;119534;-56
2023/05/13 08:52:49;;;;;;;4.70;2.70;;;;;;;34.72;15.76;101268.84;102627;278;103543;-55
2023/05/13 08:55:34;;;;;;;9.30;3.20;;;;;;;34.91;16.19;101265.66;102574;278;112531;-56
2023/05/13 08:58:13;;;;;;;4.50;2.60;;;;;;;34.86;15.89;101258.42;102469;278;94746;-56
2023/05/13 09:00:57;;;;;;;6.10;2.90;;;;;;;34.70;16.12;101251.34;102552;266;96893;-56
2023/05/13 09:03:39;;;;;;;4.80;2.80;;;;;;;34.79;16.93;101251.77;102601;278;120070;-54
2023/05/13 09:06:16;;;;;;;;;;;;;;;34.47;15.85;101258.70;102600;278;105269;-56
2023/05/13 09:08:59;;;;;;;5.10;2.20;;;;;;;32.68;14.97;101255.02;102596;278;114498;-58
2023/05/13 09:11:42;;;;;;;3.30;2.20;;;;;;;31.46;15.45;101255.79;102548;278;94288;-57
2023/05/13 09:14:21;;;;;;;4.30;1.90;;;;;;;30.84;16.48;101254.95;102622;278;98364;-58
2023/05/13 09:17:01;;;;;;;4.30;2.00;;;;;;;29.78;17.00;101259.38;102565;278;119780;-59
2023/05/13 09:19:42;;;;;;;4.70;2.10;;;;;;;28.82;17.54;101253.84;102561;278;106195;-55
2023/05/13 09:22:25;;;;;;;4.00;2.40;;;;;;;28.48;18.22;101252.67;102598;278;113612;-55
2023/05/13 09:25:00;;;;;;;3.20;2.30;;;;;;;28.38;18.90;101249.61;102589;278;93671;-56
2023/05/13 09:27:43;;;;;;;3.20;2.10;;;;;;;28.46;18.77;101246.41;102589;278;97620;-56
2023/05/13 09:30:21;;;;;;;3.00;1.90;;;;;;;28.32;18.69;101253.70;102557;278;119814;-56
2023/05/13 09:33:11;;;;;;;4.10;2.10;;;;;;;27.66;18.51;101251.04;102560;278;104864;-57
2023/05/13 09:35:58;;;;;;;3.20;2.20;;;;;;;27.40;18.94;101241.42;102485;277;115069;-57
2023/05/13 09:38:38;;;;;;;5.20;2.40;;;;;;;27.17;19.37;101238.67;102513;278;94835;-55
2023/05/13 09:41:14;;;;;;;3.20;2.30;;;;;;;27.01;19.57;101231.92;102568;278;96683;-55
2023/05/13 09:43:59;;;;;;;3.50;2.10;;;;;;;26.65;19.83;101238.63;102520;278;119110;-58
2023/05/13 09:46:38;;;;;;;3.00;2.00;;;;;;;26.14;19.93;101237.73;102545;277;105462;-58
2023/05/13 09:49:26;;;;;;;5.00;2.20;;;;;;;26.14;20.29;101233.80;102553;278;112014;-58
2023/05/13 09:52:08;;;;;;;5.10;2.10;;;;;;;26.27;20.61;101231.80;102570;278;95342;-58
2023/05/13 09:54:52;;;;;;;3.10;1.80;;;;;;;26.59;20.38;101225.66;102577;277;97598;-55
2023/05/13 09:57:34;;;;;;;3.50;2.10;;;;;;;27.19;20.65;101222.70;102585;278;120981;-56
2023/05/13 10:00:10;;;;;;;2.10;1.70;;;;;;;27.66;20.39;101214.13;102635;278;105586;-58
2023/05/13 10:02:57;;;;;;;4.00;2.30;;;;;;;27.51;19.90;101213.87;102586;277;115255;-58
2023/05/13 10:05:45;;;;;;;4.50;2.50;;;;;;;26.88;20.21;101216.55;102589;277;94400;-55
2023/05/13 10:08:33;;;;;;;3.40;2.30;;;;;;;27.05;20.57;101212.79;102590;277;96374;-57
2023/05/13 10:11:15;;;;;;;4.60;2.20;;;;;;;27.15;20.39;101212.16;102580;277;120760;-57
2023/05/13 10:13:58;;;;;;;4.20;2.10;;;;;;;27.24;20.54;101209.20;102572;278;104966;-56
2023/05/13 10:16:33;;;;;;;4.70;2.00;;;;;;;27.49;20.79;101208.02;102563;278;115467;-56
2023/05/13 10:19:20;;;;;;;2.90;1.70;;;;;;;27.27;20.51;101206.20;102555;278;93785;-55
2023/05/13 10:22:03;;;;;;;4.20;2.10;;;;;;;27.17;20.49;101209.55;102599;277;97599;-56
2023/05/13 10:24:50;;;;;;;4.20;1.80;;;;;;;26.40;20.48;101211.76;102555;277;118858;-54
2023/05/13 10:27:33;;;;;;;5.40;2.30;;;;;;;26.03;20.94;101209.98;102585;277;104483;-55
2023/05/13 10:30:09;;;;;;;2.80;1.90;;;;;;;26.05;21.20;101209.27;102578;278;113817;-58
2023/05/13 10:32:48;;;;;;;6.50;2.40;;;;;;;26.34;21.40;101206.20;102567;278;93807;-58
2023/05/13 10:35:33;;;;;;;2.90;1.80;;;;;;;26.11;21.05;101202.59;102582;277;98009;-58
2023/05/13 10:38:20;;;;;;;4.20;2.60;;;;;;;25.73;21.23;101199.23;102580;277;120268;-55
2023/05/13 10:41:28;;;;;;;5.20;2.00;;;;;;;25.39;21.27;101206.02;102558;277;103199;-55
2023/05/13 10:44:04;;;;;;;3.30;2.10;;;;;;;25.06;21.49;101200.29;102545;278;112726;-58
2023/05/13 10:46:46;;;;;;;3.10;2.10;;;;;;;24.70;21.82;101205.89;102585;278;93448;-58
2023/05/13 10:49:38;;;;;;;3.80;2.20;;;;;;;24.66;22.35;101201.80;102590;277;97438;-55
2023/05/13 10:52:16;;;;;;;3.10;2.00;;;;;;;24.28;22.25;101202.38;102583;278;120604;-55
2023/05/13 10:55:05;;;;;;;3.10;2.20;;;;;;;24.13;22.62;101199.83;102542;278;106470;-57
2023/05/13 10:57:41;;;;;;;5.20;2.20;;;;;;;24.19;22.78;101201.27;102562;277;113995;-58
2023/05/13 11:00:19;;;;;;;4.10;1.90;;;;;;;24.16;22.82;101198.16;102564;277;93908;-58
2023/05/13 11:03:11;;;;;;;3.60;2.10;;;;;;;24.27;22.71;101189.00;102583;277;97196;-56
2023/05/13 11:06:04;;;;;;;2.60;2.10;;;;;;;24.33;23.17;101188.73;102532;277;121852;-56
2023/05/13 11:08:48;;;;;;;3.90;1.90;;;;;;;24.22;23.19;101190.70;102582;277;105617;-57
2023/05/13 11:11:42;;;;;;;3.60;2.30;;;;;;;24.38;23.23;101194.68;102529;277;114256;-58
2023/05/13 11:14:39;;;;;;;2.80;2.20;;;;;;;24.47;23.20;101192.41;102555;277;93475;-58
2023/05/13 11:17:21;;;;;;;4.20;2.40;;;;;;;24.55;23.27;101189.11;102557;278;97972;-58
2023/05/13 11:20:00;;;;;;;3.90;2.20;;;;;;;24.42;23.32;101186.93;102578;278;120875;-55
2023/05/13 11:22:44;;;;;;;4.60;2.00;;;;;;;24.37;23.42;101190.04;102563;278;104805;-54
2023/05/13 11:25:31;;;;;;;3.10;2.10;;;;;;;24.03;23.39;101192.96;102565;274;114031;-57
2023/05/13 11:28:14;;;;;;;3.50;2.00;;;;;;;23.69;23.63;101192.77;102687;278;93551;-56
2023/05/13 11:31:21;;;;;;;3.80;2.30;;;;;;;23.59;24.05;101194.50;102709;278;97755;-56
2023/05/13 11:34:11;;;;;;;2.60;1.90;;;;;;;23.44;24.34;101198.05;102609;278;120417;-53
2023/05/13 11:36:48;;;;;;;3.20;2.20;;;;;;;23.37;24.50;101199.98;102659;278;103964;-55
2023/05/13 11:39:26;;;;;;;3.40;2.40;;;;;;;23.47;24.54;101200.91;102615;278;114529;-56
2023/05/13 11:42:03;;;;;;;4.80;1.80;;;;;;;23.42;24.16;101202.23;102558;278;93722;-57
2023/05/13 11:44:45;;;;;;;4.40;2.50;;;;;;;23.48;24.30;101197.23;102645;278;98037;-58
2023/05/13 11:47:34;;;;;;;3.40;2.00;;;;;;;23.70;24.54;101193.55;102678;278;119151;-58
2023/05/13 11:50:28;;;;;;;4.30;2.60;;;;;;;23.96;24.22;101195.09;102650;278;103371;-59
2023/05/13 11:53:09;;;;;;;2.70;1.80;;;;;;;24.09;23.79;101189.50;102109;278;578662;-57
2023/05/13 11:55:51;;;;;;;4.30;2.40;;;;;;;24.39;23.88;101189.30;102600;278;95485;-60
2023/05/13 11:58:31;;;;;;;3.70;2.00;;;;;;;24.57;23.66;101187.09;102663;278;97254;-55
2023/05/13 12:01:19;;;;;;;2.80;2.00;;;;;;;24.47;23.17;101189.88;102603;278;120970;-56
2023/05/13 12:04:11;;;;;;;4.00;1.80;;;;;;;24.35;23.22;101188.57;102627;278;105903;-55
2023/05/13 12:06:52;;;;;;;4.00;2.50;;;;;;;23.99;23.16;101189.72;102661;278;114248;-55
2023/05/13 12:09:28;;;;;;;3.80;2.30;;;;;;;23.82;23.35;101184.32;102664;278;93389;-57
2023/05/13 12:12:04;;;;;;;2.50;1.80;;;;;;;23.76;23.55;101179.89;102625;278;97245;-58
2023/05/13 12:14:41;;;;;;;3.80;2.40;;;;;;;23.68;23.84;101179.84;102642;278;121325;-63
2023/05/13 12:17:17;;;;;;;5.20;2.40;;;;;;;23.54;24.08;101179.11;102664;278;104763;-56
2023/05/13 12:20:16;;;;;;;4.10;2.20;;;;;;;23.38;24.03;101181.08;102670;277;113845;-57